createdAt,value
2017-03-10T07:25:08.285Z,1018.85
2017-03-10T07:26:08.316Z,1018.83
2017-03-10T07:27:08.374Z,1018.8
2017-03-10T07:28:08.399Z,1018.87
2017-03-10T07:29:08.391Z,1018.84
2017-03-10T07:30:08.456Z,1018.8
2017-03-10T07:31:08.460Z,1018.88
2017-03-10T07:32:08.483Z,1018.81
2017-03-10T07:33:08.513Z,1018.85
2017-03-10T07:34:08.538Z,1018.89
2017-03-10T07:35:08.597Z,1018.92
2017-03-10T07:36:08.585Z,1018.83
2017-03-10T07:37:08.659Z,1018.87
2017-03-10T07:38:08.651Z,1019
2017-03-10T07:39:08.705Z,1019.02
2017-03-10T07:40:08.734Z,1019
2017-03-10T07:41:08.737Z,1018.95
2017-03-10T07:42:08.793Z,1019.01
2017-03-10T07:43:08.786Z,1018.99
2017-03-10T07:44:08.820Z,1018.98
2017-03-10T07:45:08.878Z,1019.03
2017-03-10T07:46:08.880Z,1019.02
2017-03-10T07:47:08.935Z,1019.04
2017-03-10T07:48:08.933Z,1018.99
2017-03-10T07:49:08.966Z,1019.05
2017-03-10T07:50:08.982Z,1019.05
2017-03-10T07:51:09.026Z,1019.08
2017-03-10T07:52:09.076Z,1019.04
2017-03-10T07:53:09.077Z,1019.08
2017-03-10T07:54:09.095Z,1019.11
2017-03-10T07:55:09.133Z,1019.12
2017-03-10T07:56:09.292Z,1019.19
2017-03-10T07:57:09.178Z,1019.17
2017-03-10T07:58:09.216Z,1019.17
2017-03-10T07:59:09.300Z,1019.24
2017-03-10T08:00:09.302Z,1019.27
2017-03-10T08:01:09.302Z,1019.27
2017-03-10T08:02:09.328Z,1019.24
2017-03-10T08:03:09.363Z,1019.27
2017-03-10T08:04:09.390Z,1019.35
2017-03-10T08:05:09.419Z,1019.34
2017-03-10T08:06:09.468Z,1019.42
2017-03-10T08:07:09.471Z,1019.42
2017-03-10T08:08:09.493Z,1019.34
2017-03-10T08:09:09.522Z,1019.29
2017-03-10T08:10:09.588Z,1019.37
2017-03-10T08:11:09.587Z,1019.35
2017-03-10T08:12:09.671Z,1019.36
2017-03-10T08:13:09.667Z,1019.38
2017-03-10T08:14:09.674Z,1019.42
2017-03-10T08:15:09.698Z,1019.44
2017-03-10T08:16:09.730Z,1019.49
2017-03-10T08:17:09.755Z,1019.5
2017-03-10T08:18:09.787Z,1019.45
2017-03-10T08:19:09.810Z,1019.51
2017-03-10T08:20:09.844Z,1019.46
2017-03-10T08:21:09.872Z,1019.49
2017-03-10T08:22:09.903Z,1019.54
2017-03-10T08:23:09.927Z,1019.61
2017-03-10T08:24:09.961Z,1019.55
2017-03-10T08:25:09.989Z,1019.53
2017-03-10T08:26:10.018Z,1019.45
2017-03-10T08:27:10.046Z,1019.5
2017-03-10T08:28:10.079Z,1019.53
2017-03-10T08:29:10.098Z,1019.61
2017-03-10T08:30:10.132Z,1019.69
2017-03-10T08:31:10.152Z,1019.94
2017-03-10T08:32:10.195Z,1019.96
2017-03-10T08:33:10.222Z,1019.73
2017-03-10T08:34:10.252Z,1019.58
2017-03-10T08:35:10.432Z,1019.62
2017-03-10T08:36:10.299Z,1019.63
2017-03-10T08:37:10.344Z,1019.61
2017-03-10T08:38:10.373Z,1019.65
2017-03-10T08:39:10.401Z,1019.6
2017-03-10T08:40:10.432Z,1019.67
2017-03-10T08:41:10.459Z,1019.63
2017-03-10T08:42:10.492Z,1019.61
2017-03-10T08:43:10.519Z,1019.66
2017-03-10T08:44:10.543Z,1019.69
2017-03-10T08:45:10.579Z,1019.66
2017-03-10T08:46:10.600Z,1019.7
2017-03-10T08:47:10.644Z,1019.71
2017-03-10T08:48:10.699Z,1019.82
2017-03-10T08:49:10.699Z,1019.71
2017-03-10T08:50:10.727Z,1019.73
2017-03-10T08:51:10.788Z,1019.71
2017-03-10T08:52:10.820Z,1019.78
2017-03-10T08:53:10.812Z,1019.86
2017-03-10T08:54:10.849Z,1019.84
2017-03-10T08:55:10.907Z,1019.8
2017-03-10T08:56:10.901Z,1019.86
2017-03-10T08:57:10.967Z,1019.87
2017-03-10T08:58:10.965Z,1019.87
2017-03-10T08:59:10.990Z,1019.87
2017-03-10T09:00:11.028Z,1019.82
2017-03-10T09:01:11.060Z,1019.84
2017-03-10T09:02:11.079Z,1019.88
2017-03-10T09:03:11.112Z,1019.88
2017-03-10T09:04:11.172Z,1019.83
2017-03-10T09:05:11.201Z,1019.8
2017-03-10T09:06:11.222Z,1019.85
2017-03-10T09:07:11.231Z,1019.8
2017-03-10T09:08:11.259Z,1019.83
2017-03-10T09:09:11.320Z,1019.84
2017-03-10T09:10:11.326Z,1019.84
2017-03-10T09:11:11.341Z,1019.85
2017-03-10T09:12:11.379Z,1019.87
2017-03-10T09:13:11.410Z,1019.88
2017-03-10T09:14:11.441Z,1019.87
2017-03-10T09:15:11.466Z,1019.86
2017-03-10T09:16:11.495Z,1019.88
2017-03-10T09:17:11.523Z,1019.87
2017-03-10T09:18:11.554Z,1019.87
2017-03-10T09:19:11.620Z,1019.86
2017-03-10T09:20:11.613Z,1019.89
2017-03-10T09:21:11.791Z,1019.95
2017-03-10T09:22:11.681Z,1019.96
2017-03-10T09:23:11.699Z,1019.95
2017-03-10T09:24:11.765Z,1020.02
2017-03-10T09:25:11.790Z,1020.03
2017-03-10T09:26:11.788Z,1019.95
2017-03-10T09:27:11.828Z,1019.95
2017-03-10T09:28:11.857Z,1020.04
2017-03-10T09:29:11.914Z,1019.99
2017-03-10T09:30:11.907Z,1020.18
2017-03-10T09:31:11.947Z,1020.04
2017-03-10T09:32:11.978Z,1020.05
2017-03-10T09:33:11.996Z,1020.03
2017-03-10T09:34:12.033Z,1020.09
2017-03-10T09:35:12.064Z,1020
2017-03-10T09:36:12.118Z,1020.04
2017-03-10T09:37:12.116Z,1020.05
2017-03-10T09:38:12.153Z,1020.02
2017-03-10T09:39:12.184Z,1020.06
2017-03-10T09:40:12.204Z,1020.04
2017-03-10T09:41:12.243Z,1020.07
2017-03-10T09:42:12.273Z,1020.05
2017-03-10T09:43:12.298Z,1019.99
2017-03-10T09:44:12.325Z,1020.09
2017-03-10T09:45:12.357Z,1020.07
2017-03-10T09:46:12.417Z,1020.01
2017-03-10T09:47:12.418Z,1020.08
2017-03-10T09:48:12.448Z,1020.1
2017-03-10T09:49:12.473Z,1020.12
2017-03-10T09:50:12.497Z,1020.07
2017-03-10T09:51:12.566Z,1020.04
2017-03-10T09:52:12.565Z,1020.08
2017-03-10T09:53:12.598Z,1020.09
2017-03-10T09:54:12.657Z,1020
2017-03-10T09:55:12.661Z,1020.05
2017-03-10T09:56:12.718Z,1020.02
2017-03-10T09:57:12.721Z,1020.07
2017-03-10T09:58:12.777Z,1020.1
2017-03-10T09:59:12.828Z,1020.19
2017-03-10T10:00:12.812Z,1020.05
2017-03-10T10:01:12.835Z,1020
2017-03-10T10:02:12.903Z,1019.95
2017-03-10T10:03:12.898Z,1019.96
2017-03-10T10:04:12.962Z,1020
2017-03-10T10:05:12.960Z,1020
2017-03-10T10:06:12.996Z,1020.01
2017-03-10T10:07:13.028Z,1020.03
2017-03-10T10:08:13.087Z,1019.97
2017-03-10T10:09:13.115Z,1019.98
2017-03-10T10:10:13.409Z,1019.93
2017-03-10T10:11:13.150Z,1019.97
2017-03-10T10:12:13.176Z,1019.94
2017-03-10T10:13:13.201Z,1019.98
2017-03-10T10:14:13.236Z,1019.96
2017-03-10T10:15:13.274Z,1019.96
2017-03-10T10:16:13.364Z,1019.98
2017-03-10T10:17:13.364Z,1019.97
2017-03-10T10:18:13.360Z,1019.92
2017-03-10T10:19:13.395Z,1019.91
2017-03-10T10:20:13.429Z,1019.88
2017-03-10T10:21:13.486Z,1019.86
2017-03-10T10:22:13.480Z,1019.94
2017-03-10T10:23:13.519Z,1019.95
2017-03-10T10:24:13.551Z,1019.92
2017-03-10T10:25:13.611Z,1019.84
2017-03-10T10:26:13.605Z,1019.9
2017-03-10T10:27:13.672Z,1019.96
2017-03-10T10:28:13.676Z,1019.95
2017-03-10T10:29:13.703Z,1019.98
2017-03-10T10:30:13.732Z,1019.96
2017-03-10T10:31:13.765Z,1019.97
2017-03-10T10:32:13.797Z,1019.98
2017-03-10T10:33:13.830Z,1020.01
2017-03-10T10:34:13.860Z,1020.02
2017-03-10T10:35:13.917Z,1020.08
2017-03-10T10:36:13.916Z,1020.11
2017-03-10T10:37:13.951Z,1020.14
2017-03-10T10:38:14.007Z,1020.09
2017-03-10T10:39:14.003Z,1020.11
2017-03-10T10:40:14.067Z,1020.2
2017-03-10T10:41:14.073Z,1020.16
2017-03-10T10:42:14.098Z,1020.14
2017-03-10T10:43:14.125Z,1020.16
2017-03-10T10:44:14.158Z,1020.17
2017-03-10T10:45:14.219Z,1020.2
2017-03-10T10:46:14.214Z,1020.29
2017-03-10T10:47:14.281Z,1020.24
2017-03-10T10:48:14.282Z,1020.25
2017-03-10T10:49:14.346Z,1020.2
2017-03-10T10:50:14.365Z,1020.2
2017-03-10T10:51:14.410Z,1020.14
2017-03-10T10:52:14.401Z,1020.27
2017-03-10T10:53:14.434Z,1020.26
2017-03-10T10:54:14.465Z,1020.24
2017-03-10T10:55:14.497Z,1020.33
2017-03-10T10:56:14.676Z,1020.3
2017-03-10T10:57:14.556Z,1020.35
2017-03-10T10:58:14.587Z,1020.32
2017-03-10T10:59:14.617Z,1020.33
2017-03-10T11:00:14.673Z,1020.26
2017-03-10T11:01:14.703Z,1020.3
2017-03-10T11:02:14.699Z,1020.2
2017-03-10T11:03:14.737Z,1020.26
2017-03-10T11:04:14.793Z,1020.27
2017-03-10T11:05:14.799Z,1020.27
2017-03-10T11:06:14.827Z,1020.32
2017-03-10T11:07:14.853Z,1020.23
2017-03-10T11:08:14.917Z,1020.27
2017-03-10T11:09:14.912Z,1020.32
2017-03-10T11:10:14.981Z,1020.24
2017-03-10T11:11:14.976Z,1020.29
2017-03-10T11:12:15.010Z,1020.31
2017-03-10T11:13:15.071Z,1020.29
2017-03-10T11:14:15.066Z,1020.31
2017-03-10T11:15:15.127Z,1020.23
2017-03-10T11:16:15.129Z,1020.3
2017-03-10T11:17:15.170Z,1020.36
2017-03-10T11:18:15.204Z,1020.36
2017-03-10T11:19:15.232Z,1020.26
2017-03-10T11:20:15.256Z,1020.25
2017-03-10T11:21:15.322Z,1020.26
2017-03-10T11:22:15.319Z,1020.29
2017-03-10T11:23:15.362Z,1020.33
2017-03-10T11:24:15.376Z,1020.4
2017-03-10T11:25:15.407Z,1020.32
2017-03-10T11:26:15.500Z,1020.3
2017-03-10T11:27:15.514Z,1020.31
2017-03-10T11:28:15.595Z,1020.35
2017-03-10T11:29:15.597Z,1020.36
2017-03-10T11:30:15.576Z,1020.33
2017-03-10T11:31:15.601Z,1020.29
2017-03-10T11:32:15.630Z,1020.32
2017-03-10T11:33:15.662Z,1020.27
2017-03-10T11:34:15.731Z,1020.26
2017-03-10T11:35:15.720Z,1020.24
2017-03-10T11:36:15.757Z,1020.33
2017-03-10T11:37:15.826Z,1020.33
2017-03-10T11:38:15.856Z,1020.36
2017-03-10T11:39:15.883Z,1020.35
2017-03-10T11:40:15.877Z,1020.37
2017-03-10T11:41:15.911Z,1020.37
2017-03-10T11:42:15.976Z,1020.43
2017-03-10T11:43:15.973Z,1020.5
2017-03-10T11:44:16.009Z,1020.41
2017-03-10T11:45:16.043Z,1020.44
2017-03-10T11:46:16.099Z,1020.49
2017-03-10T11:47:16.137Z,1020.42
2017-03-10T11:48:16.138Z,1020.4
2017-03-10T11:49:16.160Z,1020.36
2017-03-10T11:50:16.202Z,1020.41
2017-03-10T11:51:16.219Z,1020.4
2017-03-10T11:52:16.259Z,1020.49
2017-03-10T11:53:16.282Z,1020.46
2017-03-10T11:54:16.316Z,1020.51
2017-03-10T11:55:16.381Z,1020.56
2017-03-10T11:56:16.381Z,1020.53
2017-03-10T11:57:16.693Z,1020.5
2017-03-10T11:58:16.445Z,1020.37
2017-03-10T11:59:16.502Z,1020.35
2017-03-10T12:00:16.538Z,1020.4
2017-03-10T12:01:16.531Z,1020.42
2017-03-10T12:02:16.566Z,1020.39
2017-03-10T12:03:16.601Z,1020.52
2017-03-10T12:04:16.621Z,1020.46
2017-03-10T12:05:16.673Z,1020.42
2017-03-10T12:06:16.680Z,1020.4
2017-03-10T12:07:16.711Z,1020.49
2017-03-10T12:08:16.752Z,1020.41
2017-03-10T12:09:16.811Z,1020.41
2017-03-10T12:10:16.811Z,1020.48
2017-03-10T12:11:16.847Z,1020.45
2017-03-10T12:12:16.871Z,1020.42
2017-03-10T12:13:16.906Z,1020.53
2017-03-10T12:14:16.932Z,1020.54
2017-03-10T12:15:16.968Z,1020.54
2017-03-10T12:16:17.031Z,1020.53
2017-03-10T12:17:17.021Z,1020.57
2017-03-10T12:18:17.064Z,1020.47
2017-03-10T12:19:17.122Z,1020.52
2017-03-10T12:20:17.120Z,1020.5
2017-03-10T12:21:17.156Z,1020.56
2017-03-10T12:22:17.186Z,1020.56
2017-03-10T12:23:17.220Z,1020.56
2017-03-10T12:24:17.277Z,1020.49
2017-03-10T12:25:17.282Z,1020.5
2017-03-10T12:26:17.313Z,1020.44
2017-03-10T12:27:17.333Z,1020.42
2017-03-10T12:28:17.404Z,1020.37
2017-03-10T12:29:17.434Z,1020.45
2017-03-10T12:30:17.440Z,1020.49
2017-03-10T12:31:17.461Z,1020.54
2017-03-10T12:32:17.503Z,1020.48
2017-03-10T12:33:17.527Z,1020.49
2017-03-10T12:34:17.559Z,1020.53
2017-03-10T12:35:17.592Z,1020.48
2017-03-10T12:36:17.632Z,1020.43
2017-03-10T12:37:17.682Z,1020.45
2017-03-10T12:38:17.692Z,1020.49
2017-03-10T12:39:17.711Z,1020.56
2017-03-10T12:40:17.757Z,1020.54
2017-03-10T12:41:17.788Z,1020.54
2017-03-10T12:42:17.822Z,1020.49
2017-03-10T12:43:17.849Z,1020.58
2017-03-10T12:44:17.882Z,1020.62
2017-03-10T12:45:17.940Z,1020.58
2017-03-10T12:46:17.940Z,1020.53
2017-03-10T12:47:17.976Z,1020.54
2017-03-10T12:48:18.008Z,1020.48
2017-03-10T12:49:18.032Z,1020.44
2017-03-10T12:50:18.066Z,1020.21
2017-03-10T12:51:18.130Z,1020.46
2017-03-10T12:52:18.129Z,1020.47
2017-03-10T12:53:18.164Z,1020.45
2017-03-10T12:54:18.186Z,1020.48
2017-03-10T12:55:18.228Z,1020.49
2017-03-10T12:56:18.254Z,1020.56
2017-03-10T12:57:18.316Z,1020.45
2017-03-10T12:58:18.320Z,1020.67
2017-03-10T12:59:18.349Z,1020.57
2017-03-10T13:00:18.388Z,1020.52
2017-03-10T13:01:18.443Z,1020.55
2017-03-10T13:02:18.447Z,1020.57
2017-03-10T13:03:18.475Z,1020.63
2017-03-10T13:04:18.510Z,1020.59
2017-03-10T13:05:18.529Z,1020.62
2017-03-10T13:06:18.569Z,1020.49
2017-03-10T13:07:18.629Z,1020.56
2017-03-10T13:08:18.620Z,1020.56
2017-03-10T13:09:18.660Z,1020.56
2017-03-10T13:10:18.721Z,1020.5
2017-03-10T13:11:18.721Z,1020.5
2017-03-10T13:12:18.752Z,1020.54
2017-03-10T13:13:18.784Z,1020.47
2017-03-10T13:14:18.849Z,1020.53
2017-03-10T13:15:18.849Z,1020.54
2017-03-10T13:16:18.883Z,1020.62
2017-03-10T13:17:18.899Z,1020.6
2017-03-10T13:18:18.942Z,1020.61
2017-03-10T13:19:18.968Z,1020.61
2017-03-10T13:20:19.031Z,1020.63
2017-03-10T13:21:19.027Z,1020.72
2017-03-10T13:22:19.062Z,1020.64
2017-03-10T13:23:19.095Z,1020.69
2017-03-10T13:24:19.127Z,1020.68
2017-03-10T13:25:19.153Z,1020.67
2017-03-10T13:26:19.190Z,1020.66
2017-03-10T13:27:19.251Z,1020.75
2017-03-10T13:28:19.252Z,1020.67
2017-03-10T13:29:19.286Z,1020.69
2017-03-10T13:30:19.312Z,1020.77
2017-03-10T13:31:19.345Z,1020.71
2017-03-10T13:32:19.365Z,1020.7
2017-03-10T13:33:19.410Z,1020.74
2017-03-10T13:34:19.442Z,1020.73
2017-03-10T13:35:19.498Z,1020.75
2017-03-10T13:36:19.502Z,1020.76
2017-03-10T13:37:19.563Z,1020.73
2017-03-10T13:38:19.554Z,1020.77
2017-03-10T13:39:19.628Z,1020.75
2017-03-10T13:40:19.624Z,1020.77
2017-03-10T13:41:19.656Z,1020.82
2017-03-10T13:42:19.691Z,1020.75
2017-03-10T13:43:19.724Z,1020.82
2017-03-10T13:44:19.752Z,1020.71
2017-03-10T13:45:19.782Z,1020.71
2017-03-10T13:46:19.815Z,1020.72
2017-03-10T13:47:19.875Z,1020.69
2017-03-10T13:48:19.866Z,1020.66
2017-03-10T13:49:19.901Z,1020.75
2017-03-10T13:50:19.943Z,1020.75
2017-03-10T13:51:19.976Z,1020.72
2017-03-10T13:52:20.028Z,1020.69
2017-03-10T13:53:20.032Z,1020.75
2017-03-10T13:54:20.068Z,1020.76
2017-03-10T13:55:20.120Z,1020.74
2017-03-10T13:56:20.124Z,1020.71
2017-03-10T13:57:20.157Z,1020.68
2017-03-10T13:58:20.215Z,1020.67
2017-03-10T13:59:20.216Z,1020.72
2017-03-10T14:00:20.276Z,1020.72
2017-03-10T14:01:20.271Z,1020.73
2017-03-10T14:02:20.337Z,1020.78
2017-03-10T14:03:20.344Z,1020.78
2017-03-10T14:04:20.362Z,1020.72
2017-03-10T14:05:20.397Z,1020.75
2017-03-10T14:06:20.433Z,1020.78
2017-03-10T14:07:20.496Z,1020.76
2017-03-10T14:08:20.500Z,1020.73
2017-03-10T14:09:20.524Z,1020.73
2017-03-10T14:10:20.584Z,1020.78
2017-03-10T14:11:20.588Z,1020.72
2017-03-10T14:12:20.625Z,1020.78
2017-03-10T14:13:20.654Z,1020.8
2017-03-10T14:14:20.682Z,1020.78
2017-03-10T14:15:20.713Z,1020.78
2017-03-10T14:16:20.738Z,1020.79
2017-03-10T14:17:20.776Z,1020.88
2017-03-10T14:18:20.796Z,1020.78
2017-03-10T14:19:20.836Z,1020.8
2017-03-10T14:20:20.867Z,1020.84
2017-03-10T14:21:20.895Z,1020.89
2017-03-10T14:22:20.921Z,1020.93
2017-03-10T14:23:20.988Z,1020.89
2017-03-10T14:24:20.985Z,1020.87
2017-03-10T14:25:21.016Z,1020.93
2017-03-10T14:26:21.044Z,1020.89
2017-03-10T14:27:21.080Z,1020.94
2017-03-10T14:28:21.136Z,1020.95
2017-03-10T14:29:21.170Z,1020.92
2017-03-10T14:30:21.171Z,1020.99
2017-03-10T14:31:21.193Z,1020.94
2017-03-10T14:32:21.257Z,1020.96
2017-03-10T14:33:21.261Z,1020.91
2017-03-10T14:34:21.321Z,1020.95
2017-03-10T14:35:21.317Z,1021
2017-03-10T14:36:21.382Z,1020.94
2017-03-10T14:37:21.382Z,1020.97
2017-03-10T14:38:21.423Z,1020.93
2017-03-10T14:39:21.437Z,1020.99
2017-03-10T14:40:21.472Z,1020.92
2017-03-10T14:41:21.535Z,1020.93
2017-03-10T14:42:21.537Z,1020.9
2017-03-10T14:43:21.576Z,1020.92
2017-03-10T14:44:21.598Z,1020.91
2017-03-10T14:45:21.630Z,1020.95
2017-03-10T14:46:21.663Z,1020.94
2017-03-10T14:47:21.685Z,1020.95
2017-03-10T14:48:21.714Z,1020.94
2017-03-10T14:49:21.752Z,1020.95
2017-03-10T14:50:21.809Z,1020.88
2017-03-10T14:51:21.836Z,1020.94
2017-03-10T14:52:21.831Z,1020.89
2017-03-10T14:53:21.870Z,1020.89
2017-03-10T14:54:21.903Z,1020.86
2017-03-10T14:55:21.931Z,1020.93
2017-03-10T14:56:21.958Z,1020.89
2017-03-10T14:57:21.997Z,1020.88
2017-03-10T14:58:22.030Z,1020.85
2017-03-10T14:59:22.077Z,1020.92
2017-03-10T15:00:22.090Z,1020.9
2017-03-10T15:01:22.105Z,1020.88
2017-03-10T15:02:22.149Z,1020.92
2017-03-10T15:03:22.212Z,1020.87
2017-03-10T15:04:22.202Z,1020.95
2017-03-10T15:05:22.273Z,1020.89
2017-03-10T15:06:22.270Z,1020.95
2017-03-10T15:07:22.301Z,1020.86
2017-03-10T15:08:22.330Z,1020.91
2017-03-10T15:09:22.362Z,1020.9
2017-03-10T15:10:22.393Z,1020.86
2017-03-10T15:11:22.449Z,1020.85
2017-03-10T15:12:22.454Z,1020.91
2017-03-10T15:13:22.512Z,1020.83
2017-03-10T15:14:22.512Z,1020.85
2017-03-10T15:15:22.545Z,1020.85
2017-03-10T15:16:22.611Z,1020.82
2017-03-10T15:17:22.801Z,1020.91
2017-03-10T15:18:22.642Z,1020.91
2017-03-10T15:19:22.667Z,1020.91
2017-03-10T15:20:22.719Z,1020.92
2017-03-10T15:21:22.728Z,1020.87
2017-03-10T15:22:22.755Z,1020.89
2017-03-10T15:23:22.812Z,1020.86
2017-03-10T15:24:22.830Z,1020.87
2017-03-10T15:25:22.839Z,1020.91
2017-03-10T15:26:22.879Z,1020.9
2017-03-10T15:27:22.907Z,1020.9
2017-03-10T15:28:22.965Z,1020.97
2017-03-10T15:29:22.993Z,1020.97
2017-03-10T15:30:23.031Z,1020.98
2017-03-10T15:31:23.027Z,1020.94
2017-03-10T15:32:23.059Z,1020.98
2017-03-10T15:33:23.120Z,1020.99
2017-03-10T15:34:23.109Z,1021
2017-03-10T15:35:23.147Z,1020.97
2017-03-10T15:36:23.172Z,1020.97
2017-03-10T15:37:23.236Z,1021
2017-03-10T15:38:23.240Z,1021
2017-03-10T15:39:23.295Z,1021.01
2017-03-10T15:40:23.299Z,1021.01
2017-03-10T15:41:23.321Z,1020.98
2017-03-10T15:42:23.359Z,1021.02
2017-03-10T15:43:23.382Z,1021.04
2017-03-10T15:44:23.419Z,1021.05
2017-03-10T15:45:23.441Z,1021.02
2017-03-10T15:46:23.505Z,1021.07
2017-03-10T15:47:23.539Z,1021.07
2017-03-10T15:48:23.564Z,1021.07
2017-03-10T15:49:23.570Z,1021.06
2017-03-10T15:50:23.588Z,1021.07
2017-03-10T15:51:23.623Z,1021.08
2017-03-10T15:52:23.656Z,1021.12
2017-03-10T15:53:23.684Z,1021.15
2017-03-10T15:54:23.713Z,1021.13
2017-03-10T15:55:23.745Z,1021.17
2017-03-10T15:56:23.805Z,1021.21
2017-03-10T15:57:23.806Z,1021.18
2017-03-10T15:58:23.828Z,1021.18
2017-03-10T15:59:23.859Z,1021.19
2017-03-10T16:00:23.926Z,1021.23
2017-03-10T16:01:23.925Z,1021.19
2017-03-10T16:02:23.951Z,1021.25
2017-03-10T16:03:23.982Z,1021.2
2017-03-10T16:04:24.039Z,1021.21
2017-03-10T16:05:24.072Z,1021.25
2017-03-10T16:06:24.076Z,1021.26
2017-03-10T16:07:24.136Z,1021.3
2017-03-10T16:08:24.132Z,1021.24
2017-03-10T16:09:24.166Z,1021.26
2017-03-10T16:10:24.475Z,1021.24
2017-03-10T16:11:24.221Z,1021.31
2017-03-10T16:12:24.263Z,1021.37
2017-03-10T16:13:24.279Z,1021.4
2017-03-10T16:14:24.315Z,1021.35
2017-03-10T16:15:24.336Z,1021.33
2017-03-10T16:16:24.375Z,1021.44
2017-03-10T16:17:24.434Z,1021.36
2017-03-10T16:18:24.425Z,1021.37
2017-03-10T16:19:24.465Z,1021.36
2017-03-10T16:20:24.493Z,1021.42
2017-03-10T16:21:24.521Z,1021.35
2017-03-10T16:22:24.550Z,1021.38
2017-03-10T16:23:24.606Z,1021.34
2017-03-10T16:24:24.609Z,1021.34
2017-03-10T16:25:24.647Z,1021.32
2017-03-10T16:26:24.669Z,1021.37
2017-03-10T16:27:24.728Z,1021.35
2017-03-10T16:28:24.721Z,1021.39
2017-03-10T16:29:24.760Z,1021.39
2017-03-10T16:30:24.791Z,1021.4
2017-03-10T16:31:24.817Z,1021.39
2017-03-10T16:32:24.874Z,1021.35
2017-03-10T16:33:24.868Z,1021.35
2017-03-10T16:34:24.906Z,1021.34
2017-03-10T16:35:24.937Z,1021.4
2017-03-10T16:36:24.961Z,1021.41
2017-03-10T16:37:25.026Z,1021.41
2017-03-10T16:38:25.019Z,1021.45
2017-03-10T16:39:25.082Z,1021.46
2017-03-10T16:40:25.082Z,1021.46
2017-03-10T16:41:25.140Z,1021.46
2017-03-10T16:42:25.172Z,1021.46
2017-03-10T16:43:25.174Z,1021.43
2017-03-10T16:44:25.201Z,1021.46
2017-03-10T16:45:25.232Z,1021.49
2017-03-10T16:46:25.261Z,1021.52
2017-03-10T16:47:25.286Z,1021.54
2017-03-10T16:48:25.313Z,1021.55
2017-03-10T16:49:25.350Z,1021.52
2017-03-10T16:50:25.378Z,1021.52
